Nordlys — YJTS2 — position and weather

sailwx.info

Track history (hours):
 
Tides and Currents Weather Stations Pressure Air Temp Water Temp Dewpoint Dewpoint Depression Visibility Wind Speed Wind Dir Waves Ship Positions

Nordlys

Ship's website: http://fairtransport.eu/category/nordlys/

Last reported at 2017-Nov-17 15:52 UTC. Time now 2017-Nov-20 05:53 UTC.
Position N 52°57' E 004°46'.

; draft 2.7 m.

MMSI: 577228000.

Date/timePositionNaut miles runAvg speedWind from/ knotsBaromVisibWave heightAir tempDewpointWater temp
2017-Nov-17 15:52N 52°57' E 004°46'0 0.0
2017-Nov-17 15:29N 52°57' E 004°46'1 1.8
2017-Nov-17 15:00N 52°57' E 004°47'1 3.0
2017-Nov-17 14:30N 52°58' E 004°47'3 5.4
2017-Nov-17 14:00N 52°57' E 004°42'2 4.4
2017-Nov-17 13:30N 52°56' E 004°40'3 4.8
2017-Nov-17 12:59N 52°54' E 004°36'132 3.5
2017-Nov-15 23:41N 53°52' E 007°55'2 4.6
2017-Nov-15 23:09N 53°52' E 007°59'1 4.3
2017-Nov-15 22:59N 53°52' E 008°00'2 3.6
2017-Nov-15 22:27N 53°52' E 008°03'1 2.4
2017-Nov-15 22:00N 53°51' E 008°05'1 1.1
2017-Nov-15 21:30N 53°51' E 008°06'0 0.0
2017-Nov-15 21:00N 53°51' E 008°06'0 0.0
2017-Nov-15 20:30N 53°51' E 008°06'0 0.0
2017-Nov-15 20:00N 53°51' E 008°06'0 0.0
2017-Nov-15 19:30N 53°51' E 008°06'0 0.0
2017-Nov-15 18:56N 53°51' E 008°06'0 0.0
2017-Nov-15 18:29N 53°51' E 008°06'0 0.0
2017-Nov-15 17:58N 53°51' E 008°06'0 0.0
2017-Nov-15 17:30N 53°51' E 008°06'0 0.0
2017-Nov-15 17:00N 53°51' E 008°06'0 0.1
2017-Nov-15 16:30N 53°51' E 008°06'1 1.0
2017-Nov-15 16:00N 53°51' E 008°07'1 1.6
2017-Nov-15 15:30N 53°50' E 008°07'1 2.5
2017-Nov-15 14:59N 53°49' E 008°08'1 2.9
2017-Nov-15 14:30N 53°48' E 008°09'3 5.1
2017-Nov-15 14:00N 53°46' E 008°11'3 5.4
2017-Nov-15 13:30N 53°44' E 008°15'2 5.0
2017-Nov-15 13:00N 53°43' E 008°19'3 6.6
2017-Nov-15 12:30N 53°40' E 008°23'3 5.2
2017-Nov-15 12:00N 53°39' E 008°26'2 4.9
2017-Nov-15 11:30N 53°37' E 008°29'3 5.3
2017-Nov-15 11:00N 53°35' E 008°32'2 3.5
2017-Nov-15 10:30N 53°33' E 008°33'1 1.8
2017-Nov-15 09:59N 53°33' E 008°34'0 0.2
2017-Nov-15 09:30N 53°33' E 008°34'0 0.0
2017-Nov-15 09:00N 53°33' E 008°34'0 0.0
2017-Nov-15 08:30N 53°33' E 008°34'0 0.0
2017-Nov-15 07:59N 53°33' E 008°34'0 0.0
2017-Nov-15 07:30N 53°33' E 008°34'0 0.0
2017-Nov-15 07:00N 53°33' E 008°34'0 0.0
2017-Nov-15 06:30N 53°33' E 008°34'0 0.0
2017-Nov-15 06:00N 53°33' E 008°34'0 0.0
2017-Nov-15 05:30N 53°33' E 008°34'0 0.0
2017-Nov-15 05:00N 53°33' E 008°34'0 0.0
2017-Nov-15 04:30N 53°33' E 008°34'0 0.0
2017-Nov-15 04:00N 53°33' E 008°34'0 0.0
2017-Nov-15 03:30N 53°33' E 008°34'0 0.0
2017-Nov-15 03:00N 53°33' E 008°34'0 0.0
2017-Nov-15 02:30N 53°33' E 008°34'0 0.0
2017-Nov-15 02:00N 53°33' E 008°34'0 0.0
2017-Nov-15 01:30N 53°33' E 008°34'0 0.0
2017-Nov-15 01:00N 53°33' E 008°34'0 0.0
2017-Nov-15 00:30N 53°33' E 008°34'0 0.0
2017-Nov-15 00:00N 53°33' E 008°34'0 0.0
2017-Nov-14 23:30N 53°33' E 008°34'0 0.0
2017-Nov-14 23:00N 53°33' E 008°34'0 0.0
2017-Nov-14 22:30N 53°33' E 008°34'0 0.0
2017-Nov-14 22:00N 53°33' E 008°34'0 0.0
2017-Nov-14 21:30N 53°33' E 008°34'0 0.0
2017-Nov-14 20:58N 53°33' E 008°34'0 0.0
2017-Nov-14 20:30N 53°33' E 008°34'0 0.0
2017-Nov-14 20:00N 53°33' E 008°34'0 0.0
2017-Nov-14 19:30N 53°33' E 008°34'0 0.0
2017-Nov-14 19:00N 53°33' E 008°34'0 0.0
2017-Nov-14 18:30N 53°33' E 008°34'0 0.0
2017-Nov-14 17:58N 53°33' E 008°34'0 0.0
2017-Nov-14 17:28N 53°33' E 008°34'0 0.0
2017-Nov-14 16:58N 53°33' E 008°34'0 0.0
2017-Nov-14 16:28N 53°33' E 008°34'0 0.0
2017-Nov-14 15:58N 53°33' E 008°34'0 0.0
2017-Nov-14 15:28N 53°33' E 008°34'0 0.0
2017-Nov-14 14:58N 53°33' E 008°34'0 0.0
2017-Nov-14 14:28N 53°33' E 008°34'0 0.0
2017-Nov-14 13:58N 53°33' E 008°34'0 0.0
2017-Nov-14 13:28N 53°33' E 008°34'0 0.0
2017-Nov-14 12:58N 53°33' E 008°34'0 0.0
2017-Nov-14 12:28N 53°33' E 008°34'0 0.0
2017-Nov-14 11:58N 53°33' E 008°34'0 0.0
2017-Nov-14 11:28N 53°33' E 008°34'0 0.0
2017-Nov-14 10:58N 53°33' E 008°34'0 0.0
2017-Nov-14 10:28N 53°33' E 008°34'0 0.0
2017-Nov-14 09:57N 53°33' E 008°34'0 0.0
2017-Nov-14 09:28N 53°33' E 008°34'0 0.0
2017-Nov-14 08:57N 53°33' E 008°34'0 0.0
2017-Nov-14 08:27N 53°33' E 008°34'0 0.0
2017-Nov-14 07:57N 53°33' E 008°34'0 0.0
2017-Nov-14 07:30N 53°33' E 008°34'0 0.0
2017-Nov-14 07:00N 53°33' E 008°34'0 0.0
2017-Nov-14 06:30N 53°33' E 008°34'0 0.0
2017-Nov-14 06:00N 53°33' E 008°34'0 0.0
2017-Nov-14 05:30N 53°33' E 008°34'0 0.0
2017-Nov-14 05:00N 53°33' E 008°34'0 0.0
2017-Nov-14 04:30N 53°33' E 008°34'0 0.0
2017-Nov-14 04:00N 53°33' E 008°34'0 0.0
2017-Nov-14 03:30N 53°33' E 008°34'0 0.0
2017-Nov-14 03:00N 53°33' E 008°34'0 0.0
2017-Nov-14 02:30N 53°33' E 008°34'0 0.0
2017-Nov-14 02:00N 53°33' E 008°34'0 0.0
2017-Nov-14 01:30N 53°33' E 008°34'0 0.0
2017-Nov-14 01:00N 53°33' E 008°34'0 0.0
2017-Nov-14 00:30N 53°33' E 008°34'0 0.0
2017-Nov-14 00:00N 53°33' E 008°34'0 0.0
2017-Nov-13 23:30N 53°33' E 008°34'0 0.0
2017-Nov-13 23:00N 53°33' E 008°34'0 0.0
2017-Nov-13 22:30N 53°33' E 008°34'0 0.0
2017-Nov-13 22:00N 53°33' E 008°34'0 0.0
2017-Nov-13 01:59N 53°33' E 008°34'0 0.0
2017-Nov-13 01:29N 53°33' E 008°34'0 0.0
2017-Nov-13 00:59N 53°33' E 008°34'0 0.0
2017-Nov-13 00:29N 53°33' E 008°34'0 0.0
2017-Nov-12 23:59N 53°33' E 008°34'0 0.0
2017-Nov-12 23:29N 53°33' E 008°34'0 0.0
2017-Nov-12 22:59N 53°33' E 008°34'0 0.0
2017-Nov-12 22:29N 53°33' E 008°34'0 0.0
2017-Nov-12 21:59N 53°33' E 008°34'0 0.0
2017-Nov-12 21:29N 53°33' E 008°34'0 0.0
2017-Nov-12 20:59N 53°33' E 008°34'0 0.0
2017-Nov-12 20:29N 53°33' E 008°34'0 0.0
2017-Nov-12 19:59N 53°33' E 008°34'0 0.0
2017-Nov-12 19:29N 53°33' E 008°34'0 0.0
2017-Nov-12 18:59N 53°33' E 008°34'0 0.0
2017-Nov-12 18:29N 53°33' E 008°34'0 0.0
2017-Nov-12 17:59N 53°33' E 008°34'0 0.0
2017-Nov-12 17:29N 53°33' E 008°34'0 0.0
2017-Nov-12 16:59N 53°33' E 008°34'0 0.0
2017-Nov-12 16:29N 53°33' E 008°34'0 0.0
2017-Nov-12 15:59N 53°33' E 008°34'0 0.0
2017-Nov-12 15:29N 53°33' E 008°34'0 0.0
2017-Nov-12 14:59N 53°33' E 008°34'0 0.0
2017-Nov-12 14:29N 53°33' E 008°34'0 0.0
2017-Nov-12 13:59N 53°33' E 008°34'0 0.0
2017-Nov-12 13:29N 53°33' E 008°34'0 0.0
2017-Nov-12 12:59N 53°33' E 008°34'0 0.0
2017-Nov-12 12:29N 53°33' E 008°34'0 0.0
2017-Nov-12 11:59N 53°33' E 008°34'0 0.0
2017-Nov-12 11:29N 53°33' E 008°34'0 0.0
2017-Nov-12 10:59N 53°33' E 008°34'0 0.0
2017-Nov-12 10:26N 53°33' E 008°34'0 0.0
2017-Nov-12 09:59N 53°33' E 008°34'0 0.0
2017-Nov-12 09:29N 53°33' E 008°34'0 0.0
2017-Nov-12 08:59N 53°33' E 008°34'0 0.0
2017-Nov-12 08:29N 53°33' E 008°34'0 0.0
2017-Nov-12 07:59N 53°33' E 008°34'0 0.0
2017-Nov-12 07:29N 53°33' E 008°34'0 0.0
2017-Nov-12 06:59N 53°33' E 008°34'0 0.0
2017-Nov-12 06:29N 53°33' E 008°34'0 0.0
2017-Nov-12 05:59N 53°33' E 008°34'0 0.0
2017-Nov-12 05:29N 53°33' E 008°34'0 0.0
2017-Nov-12 04:59N 53°33' E 008°34'0 0.0
2017-Nov-12 04:29N 53°33' E 008°34'0 0.0
2017-Nov-12 03:59N 53°33' E 008°34'0 0.0
2017-Nov-12 03:29N 53°33' E 008°34'0 0.0
2017-Nov-12 02:59N 53°33' E 008°34'0 0.0
2017-Nov-12 02:29N 53°33' E 008°34'0 0.0
2017-Nov-12 01:59N 53°33' E 008°34'0 0.0
2017-Nov-12 01:26N 53°33' E 008°34'0 0.1
2017-Nov-12 00:59N 53°33' E 008°34'0 0.0
2017-Nov-12 00:29N 53°33' E 008°34'0 0.0
2017-Nov-11 23:59N 53°33' E 008°34'0 0.0
2017-Nov-11 23:29N 53°33' E 008°34'0 0.0
2017-Nov-11 22:59N 53°33' E 008°34'0 0.0
2017-Nov-11 22:29N 53°33' E 008°34'0 0.0
2017-Nov-11 21:59N 53°33' E 008°34'0 0.0
2017-Nov-11 21:29N 53°33' E 008°34'0 0.0
2017-Nov-11 20:59N 53°33' E 008°34'0 0.0
2017-Nov-11 20:29N 53°33' E 008°34'0 0.0
2017-Nov-11 19:59N 53°33' E 008°34'0 0.0
2017-Nov-11 19:29N 53°33' E 008°34'0 0.0
2017-Nov-11 18:59N 53°33' E 008°34'0 0.0
2017-Nov-11 18:29N 53°33' E 008°34'0 0.0
2017-Nov-11 17:59N 53°33' E 008°34'0 0.0
2017-Nov-11 17:29N 53°33' E 008°34'0 0.0
2017-Nov-11 16:59N 53°33' E 008°34'0 0.0
2017-Nov-11 16:23N 53°33' E 008°34'0 0.0
2017-Nov-11 15:59N 53°33' E 008°34'0 0.0
2017-Nov-11 15:29N 53°33' E 008°34'0 0.0
2017-Nov-11 14:59N 53°33' E 008°34'0 0.0
2017-Nov-11 14:29N 53°33' E 008°34'0 0.0
2017-Nov-11 13:59N 53°33' E 008°34'0 0.0
2017-Nov-11 13:29N 53°33' E 008°34'0 0.0
2017-Nov-11 12:59N 53°33' E 008°34'0 0.0
2017-Nov-11 12:29N 53°33' E 008°34'0 0.0
2017-Nov-11 11:59N 53°33' E 008°34'0 0.0
2017-Nov-11 11:29N 53°33' E 008°34'0 0.0
2017-Nov-11 10:59N 53°33' E 008°34'0 0.0
2017-Nov-11 10:29N 53°33' E 008°34'0 0.0
2017-Nov-11 10:00N 53°33' E 008°34'0 0.0
2017-Nov-11 09:30N 53°33' E 008°34'0 0.0
2017-Nov-11 09:00N 53°33' E 008°34'0 0.0
2017-Nov-11 08:30N 53°33' E 008°34'0 0.0
2017-Nov-11 08:00N 53°33' E 008°34'0 0.0
2017-Nov-11 07:30N 53°33' E 008°34'0 0.0
2017-Nov-11 07:00N 53°33' E 008°34'0 0.0
2017-Nov-11 06:30N 53°33' E 008°34'0 0.0
2017-Nov-11 06:00N 53°33' E 008°34'0 0.0
2017-Nov-11 05:30N 53°33' E 008°34'0 0.0
2017-Nov-11 05:00N 53°33' E 008°34'0 0.0
2017-Nov-11 04:30N 53°33' E 008°34'0 0.0
2017-Nov-11 04:00N 53°33' E 008°34'0 0.0
2017-Nov-11 03:30N 53°33' E 008°34'0 0.0
2017-Nov-11 03:00N 53°33' E 008°34'0 0.0
2017-Nov-11 02:30N 53°33' E 008°34'0 0.0
2017-Nov-11 02:00N 53°33' E 008°34'0 0.0
2017-Nov-11 01:30N 53°33' E 008°34'0 0.0
2017-Nov-11 01:00N 53°33' E 008°34'0 0.0
2017-Nov-11 00:30N 53°33' E 008°34'0 0.0
2017-Nov-11 00:00N 53°33' E 008°34'0 0.0
2017-Nov-10 23:30N 53°33' E 008°34'0 0.0
2017-Nov-10 23:00N 53°33' E 008°34'0 0.0
2017-Nov-10 22:30N 53°33' E 008°34'0 0.0
2017-Nov-10 22:00N 53°33' E 008°34'0 0.0
2017-Nov-10 21:30N 53°33' E 008°34'0 0.0
2017-Nov-10 20:57N 53°33' E 008°34'0 0.0
2017-Nov-10 20:30N 53°33' E 008°34'0 0.0
2017-Nov-10 20:00N 53°33' E 008°34'0 0.0
2017-Nov-10 19:30N 53°33' E 008°34'0 0.0
2017-Nov-10 19:00N 53°33' E 008°34'0 0.0
2017-Nov-10 18:30N 53°33' E 008°34'0 0.0
2017-Nov-10 18:00N 53°33' E 008°34'0 0.0
2017-Nov-10 17:30N 53°33' E 008°34'0 0.0
2017-Nov-10 17:00N 53°33' E 008°34'0 0.0
2017-Nov-10 16:30N 53°33' E 008°34'0 0.0
2017-Nov-10 16:00N 53°33' E 008°34'0 0.0
2017-Nov-10 15:30N 53°33' E 008°34'0 0.0
2017-Nov-10 15:00N 53°33' E 008°34'0 0.0
2017-Nov-10 14:30N 53°33' E 008°34'0 0.0
2017-Nov-10 14:00N 53°33' E 008°34'0 0.0
2017-Nov-10 13:30N 53°33' E 008°34'0 0.0
2017-Nov-10 13:00N 53°33' E 008°34'0 0.0
2017-Nov-10 12:30N 53°33' E 008°34'0 0.0
2017-Nov-10 12:00N 53°33' E 008°34'0 0.0
2017-Nov-10 11:30N 53°33' E 008°34'0 0.0
2017-Nov-10 11:00N 53°33' E 008°34'0 0.0
2017-Nov-10 10:30N 53°33' E 008°34'0 0.0
2017-Nov-10 10:00N 53°33' E 008°34'0 0.0
2017-Nov-10 09:30N 53°33' E 008°34'0 0.0
2017-Nov-10 09:00N 53°33' E 008°34'0 0.0
2017-Nov-10 08:30N 53°33' E 008°34'0 0.0
2017-Nov-10 08:00N 53°33' E 008°34'0 0.0
2017-Nov-10 07:30N 53°33' E 008°34'0 0.0
2017-Nov-10 07:00N 53°33' E 008°34'0 0.0
2017-Nov-10 06:30N 53°33' E 008°34'0 0.0
2017-Nov-10 06:00N 53°33' E 008°34'0 0.0
2017-Nov-10 05:30N 53°33' E 008°34'0 0.0
2017-Nov-10 05:00N 53°33' E 008°34'0 0.0
2017-Nov-10 04:30N 53°33' E 008°34'0 0.0
2017-Nov-10 04:00N 53°33' E 008°34'0 0.0
2017-Nov-10 03:30N 53°33' E 008°34'0 0.0
2017-Nov-10 03:00N 53°33' E 008°34'0 0.0
2017-Nov-10 02:30N 53°33' E 008°34'0 0.0
2017-Nov-10 02:00N 53°33' E 008°34'0 0.0
2017-Nov-10 01:30N 53°33' E 008°34'0 0.0
2017-Nov-10 01:00N 53°33' E 008°34'0 0.0
2017-Nov-10 00:30N 53°33' E 008°34'0 0.0
2017-Nov-10 00:00N 53°33' E 008°34'0 0.0
2017-Nov-09 23:30N 53°33' E 008°34'0 0.0
2017-Nov-09 23:00N 53°33' E 008°34'0 0.0
2017-Nov-09 22:30N 53°33' E 008°34'0 0.0
2017-Nov-09 22:00N 53°33' E 008°34'0 0.0
2017-Nov-09 21:30N 53°33' E 008°34'0 0.0
2017-Nov-09 21:00N 53°33' E 008°34'0 0.0
2017-Nov-09 20:30N 53°33' E 008°34'0 0.0
2017-Nov-09 20:00N 53°33' E 008°34'0 0.0
2017-Nov-09 19:30N 53°33' E 008°34'0 0.0
2017-Nov-09 19:00N 53°33' E 008°34'0 0.0
2017-Nov-09 18:30N 53°33' E 008°34'0 0.1
2017-Nov-09 18:00N 53°33' E 008°34'0 0.2
2017-Nov-09 17:30N 53°33' E 008°34'0 0.4
2017-Nov-09 17:00N 53°33' E 008°34'1 2.5
2017-Nov-09 16:30N 53°34' E 008°33'2 3.2
2017-Nov-09 16:00N 53°35' E 008°31'2 4.0
2017-Nov-09 15:30N 53°37' E 008°29'3 6.3
2017-Nov-09 15:00N 53°39' E 008°25'4 7.0
2017-Nov-09 14:30N 53°41' E 008°21'4 7.3
2017-Nov-09 13:59N 53°43' E 008°16'4 7.9
2017-Nov-09 13:30N 53°46' E 008°11'8 5.9
2017-Nov-09 12:06N 53°53' E 008°02'0 0.9
2017-Nov-09 12:00N 53°53' E 008°03'0 0.3
2017-Nov-09 11:26N 53°52' E 008°03'0 0.7
2017-Nov-09 11:00N 53°52' E 008°03'0 0.1
2017-Nov-09 10:27N 53°52' E 008°03'0 0.8
2017-Nov-09 09:56N 53°52' E 008°04'0 0.1
2017-Nov-09 04:39N 53°52' E 008°03'0 0.0
2017-Nov-09 04:09N 53°52' E 008°03'0 0.0
2017-Nov-09 02:42N 53°52' E 008°03'0 0.2
2017-Nov-09 02:30N 53°52' E 008°03'0 0.0
2017-Nov-09 00:09N 53°52' E 008°03'0 0.0
2017-Nov-08 23:42N 53°52' E 008°03'0 0.0
2017-Nov-08 23:27N 53°52' E 008°03'0 0.0
2017-Nov-08 21:39N 53°52' E 008°03'0 0.1
2017-Nov-08 21:18N 53°52' E 008°03'0 0.1
2017-Nov-08 20:57N 53°52' E 008°03'0 0.0
2017-Nov-08 20:24N 53°52' E 008°03'0 0.0
2017-Nov-08 19:57N 53°52' E 008°03'0 0.0
2017-Nov-08 19:24N 53°52' E 008°03'0 0.0
2017-Nov-08 18:57N 53°52' E 008°03'0 0.0
2017-Nov-08 18:30N 53°52' E 008°03'0 0.0
2017-Nov-08 18:00N 53°52' E 008°03'0 0.0
2017-Nov-08 17:30N 53°52' E 008°03'0 0.0
2017-Nov-08 17:00N 53°52' E 008°03'0 0.0
2017-Nov-08 16:21N 53°52' E 008°03'0 0.0
2017-Nov-08 15:54N 53°52' E 008°03'0 0.0
2017-Nov-08 09:45N 53°52' E 008°03'0 0.0
2017-Nov-08 09:27N 53°52' E 008°03'0 0.1
2017-Nov-08 08:57N 53°52' E 008°03'0 0.0
2017-Nov-08 08:03N 53°52' E 008°03'0 0.0
2017-Nov-08 07:45N 53°52' E 008°03'0 0.0
2017-Nov-08 02:15N 53°52' E 008°03'0 0.1
2017-Nov-08 01:51N 53°52' E 008°03'0 0.0
2017-Nov-07 21:36N 53°52' E 008°03'0 0.0
2017-Nov-07 21:26N 53°52' E 008°03'1 1.9
2017-Nov-07 20:59N 53°53' E 008°03'2 2.8
2017-Nov-07 20:23N 53°54' E 008°01'  
Track history (hours):
 
Tides and Currents Weather Stations Pressure Air Temp Water Temp Dewpoint Dewpoint Depression Visibility Wind Speed Wind Dir Waves Ship Positions

Nordlys

Ship's website: http://fairtransport.eu/category/nordlys/

Last reported at 2017-Nov-17 15:52 UTC. Time now 2017-Nov-20 05:53 UTC.
Position N 52°57' E 004°46'.

; draft 2.7 m.

MMSI: 577228000.

Date/timePositionNaut miles runAvg speedWind from/ knotsBaromVisibWave heightAir tempDewpointWater temp
2017-Nov-17 15:52N 52°57' E 004°46'0 0.0
2017-Nov-17 15:29N 52°57' E 004°46'1 1.8
2017-Nov-17 15:00N 52°57' E 004°47'1 3.0
2017-Nov-17 14:30N 52°58' E 004°47'3 5.4
2017-Nov-17 14:00N 52°57' E 004°42'2 4.4
2017-Nov-17 13:30N 52°56' E 004°40'3 4.8
2017-Nov-17 12:59N 52°54' E 004°36'132 3.5
2017-Nov-15 23:41N 53°52' E 007°55'2 4.6
2017-Nov-15 23:09N 53°52' E 007°59'1 4.3
2017-Nov-15 22:59N 53°52' E 008°00'2 3.6
2017-Nov-15 22:27N 53°52' E 008°03'1 2.4
2017-Nov-15 22:00N 53°51' E 008°05'1 1.1
2017-Nov-15 21:30N 53°51' E 008°06'0 0.0
2017-Nov-15 21:00N 53°51' E 008°06'0 0.0
2017-Nov-15 20:30N 53°51' E 008°06'0 0.0
2017-Nov-15 20:00N 53°51' E 008°06'0 0.0
2017-Nov-15 19:30N 53°51' E 008°06'0 0.0
2017-Nov-15 18:56N 53°51' E 008°06'0 0.0
2017-Nov-15 18:29N 53°51' E 008°06'0 0.0
2017-Nov-15 17:58N 53°51' E 008°06'0 0.0
2017-Nov-15 17:30N 53°51' E 008°06'0 0.0
2017-Nov-15 17:00N 53°51' E 008°06'0 0.1
2017-Nov-15 16:30N 53°51' E 008°06'1 1.0
2017-Nov-15 16:00N 53°51' E 008°07'1 1.6
2017-Nov-15 15:30N 53°50' E 008°07'1 2.5
2017-Nov-15 14:59N 53°49' E 008°08'1 2.9
2017-Nov-15 14:30N 53°48' E 008°09'3 5.1
2017-Nov-15 14:00N 53°46' E 008°11'3 5.4
2017-Nov-15 13:30N 53°44' E 008°15'2 5.0
2017-Nov-15 13:00N 53°43' E 008°19'3 6.6
2017-Nov-15 12:30N 53°40' E 008°23'3 5.2
2017-Nov-15 12:00N 53°39' E 008°26'2 4.9
2017-Nov-15 11:30N 53°37' E 008°29'3 5.3
2017-Nov-15 11:00N 53°35' E 008°32'2 3.5
2017-Nov-15 10:30N 53°33' E 008°33'1 1.8
2017-Nov-15 09:59N 53°33' E 008°34'0 0.2
2017-Nov-15 09:30N 53°33' E 008°34'0 0.0
2017-Nov-15 09:00N 53°33' E 008°34'0 0.0
2017-Nov-15 08:30N 53°33' E 008°34'0 0.0
2017-Nov-15 07:59N 53°33' E 008°34'0 0.0
2017-Nov-15 07:30N 53°33' E 008°34'0 0.0
2017-Nov-15 07:00N 53°33' E 008°34'0 0.0
2017-Nov-15 06:30N 53°33' E 008°34'0 0.0
2017-Nov-15 06:00N 53°33' E 008°34'0 0.0
2017-Nov-15 05:30N 53°33' E 008°34'0 0.0
2017-Nov-15 05:00N 53°33' E 008°34'0 0.0
2017-Nov-15 04:30N 53°33' E 008°34'0 0.0
2017-Nov-15 04:00N 53°33' E 008°34'0 0.0
2017-Nov-15 03:30N 53°33' E 008°34'0 0.0
2017-Nov-15 03:00N 53°33' E 008°34'0 0.0
2017-Nov-15 02:30N 53°33' E 008°34'0 0.0
2017-Nov-15 02:00N 53°33' E 008°34'0 0.0
2017-Nov-15 01:30N 53°33' E 008°34'0 0.0
2017-Nov-15 01:00N 53°33' E 008°34'0 0.0
2017-Nov-15 00:30N 53°33' E 008°34'0 0.0
2017-Nov-15 00:00N 53°33' E 008°34'0 0.0
2017-Nov-14 23:30N 53°33' E 008°34'0 0.0
2017-Nov-14 23:00N 53°33' E 008°34'0 0.0
2017-Nov-14 22:30N 53°33' E 008°34'0 0.0
2017-Nov-14 22:00N 53°33' E 008°34'0 0.0
2017-Nov-14 21:30N 53°33' E 008°34'0 0.0
2017-Nov-14 20:58N 53°33' E 008°34'0 0.0
2017-Nov-14 20:30N 53°33' E 008°34'0 0.0
2017-Nov-14 20:00N 53°33' E 008°34'0 0.0
2017-Nov-14 19:30N 53°33' E 008°34'0 0.0
2017-Nov-14 19:00N 53°33' E 008°34'0 0.0
2017-Nov-14 18:30N 53°33' E 008°34'0 0.0
2017-Nov-14 17:58N 53°33' E 008°34'0 0.0
2017-Nov-14 17:28N 53°33' E 008°34'0 0.0
2017-Nov-14 16:58N 53°33' E 008°34'0 0.0
2017-Nov-14 16:28N 53°33' E 008°34'0 0.0
2017-Nov-14 15:58N 53°33' E 008°34'0 0.0
2017-Nov-14 15:28N 53°33' E 008°34'0 0.0
2017-Nov-14 14:58N 53°33' E 008°34'0 0.0
2017-Nov-14 14:28N 53°33' E 008°34'0 0.0
2017-Nov-14 13:58N 53°33' E 008°34'0 0.0
2017-Nov-14 13:28N 53°33' E 008°34'0 0.0
2017-Nov-14 12:58N 53°33' E 008°34'0 0.0
2017-Nov-14 12:28N 53°33' E 008°34'0 0.0
2017-Nov-14 11:58N 53°33' E 008°34'0 0.0
2017-Nov-14 11:28N 53°33' E 008°34'0 0.0
2017-Nov-14 10:58N 53°33' E 008°34'0 0.0
2017-Nov-14 10:28N 53°33' E 008°34'0 0.0
2017-Nov-14 09:57N 53°33' E 008°34'0 0.0
2017-Nov-14 09:28N 53°33' E 008°34'0 0.0
2017-Nov-14 08:57N 53°33' E 008°34'0 0.0
2017-Nov-14 08:27N 53°33' E 008°34'0 0.0
2017-Nov-14 07:57N 53°33' E 008°34'0 0.0
2017-Nov-14 07:30N 53°33' E 008°34'0 0.0
2017-Nov-14 07:00N 53°33' E 008°34'0 0.0
2017-Nov-14 06:30N 53°33' E 008°34'0 0.0
2017-Nov-14 06:00N 53°33' E 008°34'0 0.0
2017-Nov-14 05:30N 53°33' E 008°34'0 0.0
2017-Nov-14 05:00N 53°33' E 008°34'0 0.0
2017-Nov-14 04:30N 53°33' E 008°34'0 0.0
2017-Nov-14 04:00N 53°33' E 008°34'0 0.0
2017-Nov-14 03:30N 53°33' E 008°34'0 0.0
2017-Nov-14 03:00N 53°33' E 008°34'0 0.0
2017-Nov-14 02:30N 53°33' E 008°34'0 0.0
2017-Nov-14 02:00N 53°33' E 008°34'0 0.0
2017-Nov-14 01:30N 53°33' E 008°34'0 0.0
2017-Nov-14 01:00N 53°33' E 008°34'0 0.0
2017-Nov-14 00:30N 53°33' E 008°34'0 0.0
2017-Nov-14 00:00N 53°33' E 008°34'0 0.0
2017-Nov-13 23:30N 53°33' E 008°34'0 0.0
2017-Nov-13 23:00N 53°33' E 008°34'0 0.0
2017-Nov-13 22:30N 53°33' E 008°34'0 0.0
2017-Nov-13 22:00N 53°33' E 008°34'0 0.0
2017-Nov-13 01:59N 53°33' E 008°34'0 0.0
2017-Nov-13 01:29N 53°33' E 008°34'0 0.0
2017-Nov-13 00:59N 53°33' E 008°34'0 0.0
2017-Nov-13 00:29N 53°33' E 008°34'0 0.0
2017-Nov-12 23:59N 53°33' E 008°34'0 0.0
2017-Nov-12 23:29N 53°33' E 008°34'0 0.0
2017-Nov-12 22:59N 53°33' E 008°34'0 0.0
2017-Nov-12 22:29N 53°33' E 008°34'0 0.0
2017-Nov-12 21:59N 53°33' E 008°34'0 0.0
2017-Nov-12 21:29N 53°33' E 008°34'0 0.0
2017-Nov-12 20:59N 53°33' E 008°34'0 0.0
2017-Nov-12 20:29N 53°33' E 008°34'0 0.0
2017-Nov-12 19:59N 53°33' E 008°34'0 0.0
2017-Nov-12 19:29N 53°33' E 008°34'0 0.0
2017-Nov-12 18:59N 53°33' E 008°34'0 0.0
2017-Nov-12 18:29N 53°33' E 008°34'0 0.0
2017-Nov-12 17:59N 53°33' E 008°34'0 0.0
2017-Nov-12 17:29N 53°33' E 008°34'0 0.0
2017-Nov-12 16:59N 53°33' E 008°34'0 0.0
2017-Nov-12 16:29N 53°33' E 008°34'0 0.0
2017-Nov-12 15:59N 53°33' E 008°34'0 0.0
2017-Nov-12 15:29N 53°33' E 008°34'0 0.0
2017-Nov-12 14:59N 53°33' E 008°34'0 0.0
2017-Nov-12 14:29N 53°33' E 008°34'0 0.0
2017-Nov-12 13:59N 53°33' E 008°34'0 0.0
2017-Nov-12 13:29N 53°33' E 008°34'0 0.0
2017-Nov-12 12:59N 53°33' E 008°34'0 0.0
2017-Nov-12 12:29N 53°33' E 008°34'0 0.0
2017-Nov-12 11:59N 53°33' E 008°34'0 0.0
2017-Nov-12 11:29N 53°33' E 008°34'0 0.0
2017-Nov-12 10:59N 53°33' E 008°34'0 0.0
2017-Nov-12 10:26N 53°33' E 008°34'0 0.0
2017-Nov-12 09:59N 53°33' E 008°34'0 0.0
2017-Nov-12 09:29N 53°33' E 008°34'0 0.0
2017-Nov-12 08:59N 53°33' E 008°34'0 0.0
2017-Nov-12 08:29N 53°33' E 008°34'0 0.0
2017-Nov-12 07:59N 53°33' E 008°34'0 0.0
2017-Nov-12 07:29N 53°33' E 008°34'0 0.0
2017-Nov-12 06:59N 53°33' E 008°34'0 0.0
2017-Nov-12 06:29N 53°33' E 008°34'0 0.0
2017-Nov-12 05:59N 53°33' E 008°34'0 0.0
2017-Nov-12 05:29N 53°33' E 008°34'0 0.0
2017-Nov-12 04:59N 53°33' E 008°34'0 0.0
2017-Nov-12 04:29N 53°33' E 008°34'0 0.0
2017-Nov-12 03:59N 53°33' E 008°34'0 0.0
2017-Nov-12 03:29N 53°33' E 008°34'0 0.0
2017-Nov-12 02:59N 53°33' E 008°34'0 0.0
2017-Nov-12 02:29N 53°33' E 008°34'0 0.0
2017-Nov-12 01:59N 53°33' E 008°34'0 0.0
2017-Nov-12 01:26N 53°33' E 008°34'0 0.1
2017-Nov-12 00:59N 53°33' E 008°34'0 0.0
2017-Nov-12 00:29N 53°33' E 008°34'0 0.0
2017-Nov-11 23:59N 53°33' E 008°34'0 0.0
2017-Nov-11 23:29N 53°33' E 008°34'0 0.0
2017-Nov-11 22:59N 53°33' E 008°34'0 0.0
2017-Nov-11 22:29N 53°33' E 008°34'0 0.0
2017-Nov-11 21:59N 53°33' E 008°34'0 0.0
2017-Nov-11 21:29N 53°33' E 008°34'0 0.0
2017-Nov-11 20:59N 53°33' E 008°34'0 0.0
2017-Nov-11 20:29N 53°33' E 008°34'0 0.0
2017-Nov-11 19:59N 53°33' E 008°34'0 0.0
2017-Nov-11 19:29N 53°33' E 008°34'0 0.0
2017-Nov-11 18:59N 53°33' E 008°34'0 0.0
2017-Nov-11 18:29N 53°33' E 008°34'0 0.0
2017-Nov-11 17:59N 53°33' E 008°34'0 0.0
2017-Nov-11 17:29N 53°33' E 008°34'0 0.0
2017-Nov-11 16:59N 53°33' E 008°34'0 0.0
2017-Nov-11 16:23N 53°33' E 008°34'0 0.0
2017-Nov-11 15:59N 53°33' E 008°34'0 0.0
2017-Nov-11 15:29N 53°33' E 008°34'0 0.0
2017-Nov-11 14:59N 53°33' E 008°34'0 0.0
2017-Nov-11 14:29N 53°33' E 008°34'0 0.0
2017-Nov-11 13:59N 53°33' E 008°34'0 0.0
2017-Nov-11 13:29N 53°33' E 008°34'0 0.0
2017-Nov-11 12:59N 53°33' E 008°34'0 0.0
2017-Nov-11 12:29N 53°33' E 008°34'0 0.0
2017-Nov-11 11:59N 53°33' E 008°34'0 0.0
2017-Nov-11 11:29N 53°33' E 008°34'0 0.0
2017-Nov-11 10:59N 53°33' E 008°34'0 0.0
2017-Nov-11 10:29N 53°33' E 008°34'0 0.0
2017-Nov-11 10:00N 53°33' E 008°34'0 0.0
2017-Nov-11 09:30N 53°33' E 008°34'0 0.0
2017-Nov-11 09:00N 53°33' E 008°34'0 0.0
2017-Nov-11 08:30N 53°33' E 008°34'0 0.0
2017-Nov-11 08:00N 53°33' E 008°34'0 0.0
2017-Nov-11 07:30N 53°33' E 008°34'0 0.0
2017-Nov-11 07:00N 53°33' E 008°34'0 0.0
2017-Nov-11 06:30N 53°33' E 008°34'0 0.0
2017-Nov-11 06:00N 53°33' E 008°34'0 0.0
2017-Nov-11 05:30N 53°33' E 008°34'0 0.0
2017-Nov-11 05:00N 53°33' E 008°34'0 0.0
2017-Nov-11 04:30N 53°33' E 008°34'0 0.0
2017-Nov-11 04:00N 53°33' E 008°34'0 0.0
2017-Nov-11 03:30N 53°33' E 008°34'0 0.0
2017-Nov-11 03:00N 53°33' E 008°34'0 0.0
2017-Nov-11 02:30N 53°33' E 008°34'0 0.0
2017-Nov-11 02:00N 53°33' E 008°34'0 0.0
2017-Nov-11 01:30N 53°33' E 008°34'0 0.0
2017-Nov-11 01:00N 53°33' E 008°34'0 0.0
2017-Nov-11 00:30N 53°33' E 008°34'0 0.0
2017-Nov-11 00:00N 53°33' E 008°34'0 0.0
2017-Nov-10 23:30N 53°33' E 008°34'0 0.0
2017-Nov-10 23:00N 53°33' E 008°34'0 0.0
2017-Nov-10 22:30N 53°33' E 008°34'0 0.0
2017-Nov-10 22:00N 53°33' E 008°34'0 0.0
2017-Nov-10 21:30N 53°33' E 008°34'0 0.0
2017-Nov-10 20:57N 53°33' E 008°34'0 0.0
2017-Nov-10 20:30N 53°33' E 008°34'0 0.0
2017-Nov-10 20:00N 53°33' E 008°34'0 0.0
2017-Nov-10 19:30N 53°33' E 008°34'0 0.0
2017-Nov-10 19:00N 53°33' E 008°34'0 0.0
2017-Nov-10 18:30N 53°33' E 008°34'0 0.0
2017-Nov-10 18:00N 53°33' E 008°34'0 0.0
2017-Nov-10 17:30N 53°33' E 008°34'0 0.0
2017-Nov-10 17:00N 53°33' E 008°34'0 0.0
2017-Nov-10 16:30N 53°33' E 008°34'0 0.0
2017-Nov-10 16:00N 53°33' E 008°34'0 0.0
2017-Nov-10 15:30N 53°33' E 008°34'0 0.0
2017-Nov-10 15:00N 53°33' E 008°34'0 0.0
2017-Nov-10 14:30N 53°33' E 008°34'0 0.0
2017-Nov-10 14:00N 53°33' E 008°34'0 0.0
2017-Nov-10 13:30N 53°33' E 008°34'0 0.0
2017-Nov-10 13:00N 53°33' E 008°34'0 0.0
2017-Nov-10 12:30N 53°33' E 008°34'0 0.0
2017-Nov-10 12:00N 53°33' E 008°34'0 0.0
2017-Nov-10 11:30N 53°33' E 008°34'0 0.0
2017-Nov-10 11:00N 53°33' E 008°34'0 0.0
2017-Nov-10 10:30N 53°33' E 008°34'0 0.0
2017-Nov-10 10:00N 53°33' E 008°34'0 0.0
2017-Nov-10 09:30N 53°33' E 008°34'0 0.0
2017-Nov-10 09:00N 53°33' E 008°34'0 0.0
2017-Nov-10 08:30N 53°33' E 008°34'0 0.0
2017-Nov-10 08:00N 53°33' E 008°34'0 0.0
2017-Nov-10 07:30N 53°33' E 008°34'0 0.0
2017-Nov-10 07:00N 53°33' E 008°34'0 0.0
2017-Nov-10 06:30N 53°33' E 008°34'0 0.0
2017-Nov-10 06:00N 53°33' E 008°34'0 0.0
2017-Nov-10 05:30N 53°33' E 008°34'0 0.0
2017-Nov-10 05:00N 53°33' E 008°34'0 0.0
2017-Nov-10 04:30N 53°33' E 008°34'0 0.0
2017-Nov-10 04:00N 53°33' E 008°34'0 0.0
2017-Nov-10 03:30N 53°33' E 008°34'0 0.0
2017-Nov-10 03:00N 53°33' E 008°34'0 0.0
2017-Nov-10 02:30N 53°33' E 008°34'0 0.0
2017-Nov-10 02:00N 53°33' E 008°34'0 0.0
2017-Nov-10 01:30N 53°33' E 008°34'0 0.0
2017-Nov-10 01:00N 53°33' E 008°34'0 0.0
2017-Nov-10 00:30N 53°33' E 008°34'0 0.0
2017-Nov-10 00:00N 53°33' E 008°34'0 0.0
2017-Nov-09 23:30N 53°33' E 008°34'0 0.0
2017-Nov-09 23:00N 53°33' E 008°34'0 0.0
2017-Nov-09 22:30N 53°33' E 008°34'0 0.0
2017-Nov-09 22:00N 53°33' E 008°34'0 0.0
2017-Nov-09 21:30N 53°33' E 008°34'0 0.0
2017-Nov-09 21:00N 53°33' E 008°34'0 0.0
2017-Nov-09 20:30N 53°33' E 008°34'0 0.0
2017-Nov-09 20:00N 53°33' E 008°34'0 0.0
2017-Nov-09 19:30N 53°33' E 008°34'0 0.0
2017-Nov-09 19:00N 53°33' E 008°34'0 0.0
2017-Nov-09 18:30N 53°33' E 008°34'0 0.1
2017-Nov-09 18:00N 53°33' E 008°34'0 0.2
2017-Nov-09 17:30N 53°33' E 008°34'0 0.4
2017-Nov-09 17:00N 53°33' E 008°34'1 2.5
2017-Nov-09 16:30N 53°34' E 008°33'2 3.2
2017-Nov-09 16:00N 53°35' E 008°31'2 4.0
2017-Nov-09 15:30N 53°37' E 008°29'3 6.3
2017-Nov-09 15:00N 53°39' E 008°25'4 7.0
2017-Nov-09 14:30N 53°41' E 008°21'4 7.3
2017-Nov-09 13:59N 53°43' E 008°16'4 7.9
2017-Nov-09 13:30N 53°46' E 008°11'8 5.9
2017-Nov-09 12:06N 53°53' E 008°02'0 0.9
2017-Nov-09 12:00N 53°53' E 008°03'0 0.3
2017-Nov-09 11:26N 53°52' E 008°03'0 0.7
2017-Nov-09 11:00N 53°52' E 008°03'0 0.1
2017-Nov-09 10:27N 53°52' E 008°03'0 0.8
2017-Nov-09 09:56N 53°52' E 008°04'0 0.1
2017-Nov-09 04:39N 53°52' E 008°03'0 0.0
2017-Nov-09 04:09N 53°52' E 008°03'0 0.0
2017-Nov-09 02:42N 53°52' E 008°03'0 0.2
2017-Nov-09 02:30N 53°52' E 008°03'0 0.0
2017-Nov-09 00:09N 53°52' E 008°03'0 0.0
2017-Nov-08 23:42N 53°52' E 008°03'0 0.0
2017-Nov-08 23:27N 53°52' E 008°03'0 0.0
2017-Nov-08 21:39N 53°52' E 008°03'0 0.1
2017-Nov-08 21:18N 53°52' E 008°03'0 0.1
2017-Nov-08 20:57N 53°52' E 008°03'0 0.0
2017-Nov-08 20:24N 53°52' E 008°03'0 0.0
2017-Nov-08 19:57N 53°52' E 008°03'0 0.0
2017-Nov-08 19:24N 53°52' E 008°03'0 0.0
2017-Nov-08 18:57N 53°52' E 008°03'0 0.0
2017-Nov-08 18:30N 53°52' E 008°03'0 0.0
2017-Nov-08 18:00N 53°52' E 008°03'0 0.0
2017-Nov-08 17:30N 53°52' E 008°03'0 0.0
2017-Nov-08 17:00N 53°52' E 008°03'0 0.0
2017-Nov-08 16:21N 53°52' E 008°03'0 0.0
2017-Nov-08 15:54N 53°52' E 008°03'0 0.0
2017-Nov-08 09:45N 53°52' E 008°03'0 0.0
2017-Nov-08 09:27N 53°52' E 008°03'0 0.1
2017-Nov-08 08:57N 53°52' E 008°03'0 0.0
2017-Nov-08 08:03N 53°52' E 008°03'0 0.0
2017-Nov-08 07:45N 53°52' E 008°03'0 0.0
2017-Nov-08 02:15N 53°52' E 008°03'0 0.1
2017-Nov-08 01:51N 53°52' E 008°03'0 0.0
2017-Nov-07 21:36N 53°52' E 008°03'0 0.0
2017-Nov-07 21:26N 53°52' E 008°03'1 1.9
2017-Nov-07 20:59N 53°53' E 008°03'2 2.8
2017-Nov-07 20:23N 53°54' E 008°01'  

Dump ship's entire track history